createdAt,value
2023-04-20T00:01:01.552Z,10.40
2023-04-20T00:03:03.821Z,11.35
2023-04-20T00:05:07.956Z,11.45
2023-04-20T00:07:10.292Z,11.43
2023-04-20T00:09:13.193Z,10.93
2023-04-20T00:11:14.947Z,10.30
2023-04-20T00:13:16.731Z,10.60
2023-04-20T00:15:18.713Z,11.23
2023-04-20T00:17:20.752Z,11.05
2023-04-20T00:19:23.293Z,10.00
2023-04-20T00:21:25.141Z,11.43
2023-04-20T00:23:26.950Z,10.03
2023-04-20T00:25:29.728Z,10.83
2023-04-20T00:29:33.506Z,9.70
2023-04-20T00:31:35.421Z,10.48
2023-04-20T00:33:37.204Z,10.05
2023-04-20T00:35:39.033Z,10.18
2023-04-20T00:37:41.010Z,9.97
2023-04-20T00:39:42.851Z,9.57
2023-04-20T00:41:44.761Z,10.05
2023-04-20T00:43:51.468Z,9.95
2023-04-20T00:45:53.711Z,9.77
2023-04-20T00:47:55.631Z,9.98
2023-04-20T00:49:57.470Z,10.20
2023-04-20T00:51:59.405Z,9.73
2023-04-20T00:54:01.448Z,10.68
2023-04-20T00:56:03.328Z,9.80
2023-04-20T00:58:05.772Z,9.88
2023-04-20T01:00:08.362Z,10.40
2023-04-20T01:02:10.567Z,9.20
2023-04-20T01:04:12.661Z,10.13
2023-04-20T01:06:14.649Z,10.13
2023-04-20T01:08:16.565Z,10.35
2023-04-20T01:10:18.490Z,10.77
2023-04-20T01:12:20.344Z,10.20
2023-04-20T01:14:22.180Z,9.52
2023-04-20T01:16:23.987Z,9.60
2023-04-20T01:18:27.157Z,9.90
2023-04-20T01:20:28.962Z,9.68
2023-04-20T01:22:30.843Z,10.37
2023-04-20T01:24:32.731Z,9.90
2023-04-20T01:26:34.548Z,10.45
2023-04-20T01:28:36.555Z,10.37
2023-04-20T01:30:38.528Z,9.70
2023-04-20T01:32:40.632Z,10.23
2023-04-20T01:34:42.869Z,9.90
2023-04-20T01:36:45.316Z,9.30
2023-04-20T01:38:47.175Z,10.85
2023-04-20T01:40:49.037Z,10.17
2023-04-20T01:42:50.903Z,10.07
2023-04-20T01:44:52.754Z,10.48
2023-04-20T01:46:54.597Z,9.80
2023-04-20T01:48:56.420Z,9.63
2023-04-20T01:50:58.252Z,9.83
2023-04-20T01:53:00.064Z,9.20
2023-04-20T01:55:01.966Z,9.20
2023-04-20T01:57:03.987Z,10.52
2023-04-20T01:59:05.815Z,9.75
2023-04-20T02:01:07.754Z,10.87
2023-04-20T02:03:09.750Z,9.50
2023-04-20T02:05:11.692Z,9.48
2023-04-20T02:07:13.487Z,9.80
2023-04-20T02:09:15.698Z,9.23
2023-04-20T02:11:17.917Z,9.48
2023-04-20T02:13:19.981Z,9.43
2023-04-20T02:15:21.828Z,9.57
2023-04-20T02:17:24.362Z,9.85
2023-04-20T02:19:26.207Z,9.68
2023-04-20T02:21:28.157Z,9.63
2023-04-20T02:23:29.963Z,9.45
2023-04-20T02:25:31.843Z,9.47
2023-04-20T02:27:33.616Z,9.48
2023-04-20T02:29:35.653Z,9.60
2023-04-20T02:31:37.524Z,9.38
2023-04-20T02:33:39.475Z,8.68
2023-04-20T02:35:41.308Z,9.25
2023-04-20T02:37:43.951Z,9.40
2023-04-20T02:39:46.180Z,9.38
2023-04-20T02:41:48.001Z,9.23
2023-04-20T02:43:49.837Z,9.30
2023-04-20T02:45:51.676Z,9.48
2023-04-20T02:47:53.549Z,9.53
2023-04-20T02:49:55.546Z,9.47
2023-04-20T02:51:57.309Z,9.68
2023-04-20T02:53:59.352Z,9.13
2023-04-20T02:56:01.150Z,10.18
2023-04-20T02:58:03.176Z,9.20
2023-04-20T03:00:05.552Z,9.57
2023-04-20T03:02:07.506Z,9.70
2023-04-20T03:04:09.654Z,8.73
2023-04-20T03:06:12.057Z,9.93
2023-04-20T03:08:13.940Z,10.10
2023-04-20T03:10:15.735Z,9.83
2023-04-20T03:12:18.605Z,10.43
2023-04-20T03:14:20.594Z,9.63
2023-04-20T03:16:22.406Z,9.63
2023-04-20T03:18:24.282Z,9.77
2023-04-20T03:20:26.166Z,9.20
2023-04-20T03:22:28.012Z,9.48
2023-04-20T03:24:29.898Z,9.90
2023-04-20T03:26:31.713Z,10.77
2023-04-20T03:28:33.546Z,10.10
2023-04-20T03:30:35.403Z,10.00
2023-04-20T03:32:38.434Z,9.70
2023-04-20T03:34:40.326Z,9.90
2023-04-20T03:36:42.376Z,10.57
2023-04-20T03:38:44.211Z,9.82
2023-04-20T03:40:46.149Z,10.63
2023-04-20T03:42:48.000Z,10.98
2023-04-20T03:44:49.871Z,11.43
2023-04-20T03:46:52.021Z,11.37
2023-04-20T03:48:53.876Z,11.13
2023-04-20T03:50:55.746Z,11.10
2023-04-20T03:52:57.575Z,10.90
2023-04-20T03:54:59.431Z,11.20
2023-04-20T03:57:02.271Z,11.32
2023-04-20T03:59:04.070Z,11.02
2023-04-20T04:01:09.536Z,11.77
2023-04-20T04:03:11.536Z,11.20
2023-04-20T04:05:13.575Z,11.10
2023-04-20T04:07:15.560Z,10.65
2023-04-20T04:09:17.624Z,11.57
2023-04-20T04:11:19.927Z,12.18
2023-04-20T04:13:21.721Z,12.02
2023-04-20T04:15:23.527Z,12.30
2023-04-20T04:17:25.616Z,11.37
2023-04-20T04:19:27.416Z,10.55
2023-04-20T04:21:29.239Z,11.50
2023-04-20T04:23:31.096Z,11.43
2023-04-20T04:25:33.695Z,11.93
2023-04-20T04:27:35.539Z,12.48
2023-04-20T04:29:38.799Z,10.63
2023-04-20T04:31:40.793Z,12.05
2023-04-20T04:33:43.053Z,11.98
2023-04-20T04:35:45.651Z,11.65
2023-04-20T04:37:48.116Z,12.50
2023-04-20T04:39:51.235Z,10.90
2023-04-20T04:41:53.052Z,11.88
2023-04-20T04:43:54.895Z,12.67
2023-04-20T04:45:58.506Z,11.90
2023-04-20T04:48:00.502Z,12.18
2023-04-20T04:50:06.136Z,12.35
2023-04-20T04:52:08.890Z,11.45
2023-04-20T04:56:13.374Z,10.65
2023-04-20T04:58:15.757Z,10.77
2023-04-20T05:00:18.181Z,11.73
2023-04-20T05:02:20.225Z,11.20
2023-04-20T05:04:22.805Z,12.20
2023-04-20T05:06:24.752Z,11.52
2023-04-20T05:08:26.619Z,11.75
2023-04-20T05:10:28.465Z,11.10
2023-04-20T05:12:30.324Z,10.73
2023-04-20T05:14:32.276Z,11.20
2023-04-20T05:16:34.155Z,11.32
2023-04-20T05:18:36.197Z,11.23
2023-04-20T05:20:38.260Z,11.38
2023-04-20T05:22:40.090Z,10.68
2023-04-20T05:24:42.574Z,11.95
2023-04-20T05:26:44.511Z,10.90
2023-04-20T05:28:46.311Z,11.15
2023-04-20T05:30:48.208Z,9.93
2023-04-20T05:32:52.238Z,12.50
2023-04-20T05:34:54.594Z,11.20
2023-04-20T05:36:57.960Z,11.25
2023-04-20T05:38:59.911Z,10.55
2023-04-20T05:41:01.868Z,11.18
2023-04-20T05:43:03.744Z,11.63
2023-04-20T05:45:06.448Z,10.50
2023-04-20T05:49:10.746Z,10.40
2023-04-20T05:51:12.725Z,9.73
2023-04-20T05:53:14.564Z,10.48
2023-04-20T05:55:18.487Z,10.90
2023-04-20T05:57:23.627Z,9.95
2023-04-20T05:59:26.226Z,9.60
2023-04-20T06:01:28.099Z,9.50
2023-04-20T06:03:30.247Z,10.55
2023-04-20T06:05:32.299Z,10.93
2023-04-20T06:07:34.210Z,10.48
2023-04-20T06:09:36.092Z,11.15
2023-04-20T06:11:37.911Z,10.43
2023-04-20T06:13:39.793Z,10.03
2023-04-20T06:15:41.829Z,9.47
2023-04-20T06:17:43.717Z,10.73
2023-04-20T06:19:47.514Z,10.30
2023-04-20T06:21:49.654Z,10.52
2023-04-20T06:23:51.468Z,11.15
2023-04-20T06:25:53.306Z,10.00
2023-04-20T06:27:55.099Z,9.83
2023-04-20T06:29:56.912Z,10.10
2023-04-20T06:31:58.752Z,10.37
2023-04-20T06:34:00.649Z,10.47
2023-04-20T06:36:02.430Z,10.55
2023-04-20T06:38:04.682Z,9.83
2023-04-20T06:40:08.444Z,9.63
2023-04-20T06:42:10.790Z,9.88
2023-04-20T06:44:12.672Z,10.68
2023-04-20T06:46:14.575Z,10.00
2023-04-20T06:48:30.821Z,9.73
2023-04-20T06:50:34.423Z,9.63
2023-04-20T06:52:39.417Z,10.45
2023-04-20T06:54:45.765Z,10.20
2023-04-20T06:56:50.660Z,9.35
2023-04-20T06:58:52.768Z,10.13
2023-04-20T07:00:58.415Z,9.88
2023-04-20T07:03:03.934Z,9.63
2023-04-20T07:05:06.124Z,10.18
2023-04-20T07:07:08.087Z,9.93
2023-04-20T07:09:10.267Z,9.98
2023-04-20T07:11:12.867Z,9.45
2023-04-20T07:13:14.705Z,9.68
2023-04-20T07:15:16.553Z,9.43
2023-04-20T07:17:18.345Z,10.63
2023-04-20T07:19:20.802Z,9.57
2023-04-20T07:21:22.902Z,10.35
2023-04-20T07:23:25.917Z,10.05
2023-04-20T07:25:27.910Z,9.98
2023-04-20T07:27:30.082Z,9.90
2023-04-20T07:29:33.797Z,9.45
2023-04-20T07:31:36.523Z,10.90
2023-04-20T07:33:38.400Z,10.05
2023-04-20T07:35:40.539Z,10.63
2023-04-20T07:37:42.354Z,9.35
2023-04-20T07:39:44.210Z,9.87
2023-04-20T07:41:46.095Z,9.35
2023-04-20T07:43:47.923Z,9.68
2023-04-20T07:45:49.773Z,10.33
2023-04-20T07:47:52.504Z,10.60
2023-04-20T07:52:05.963Z,8.90
2023-04-20T07:54:14.964Z,9.43
2023-04-20T07:56:16.756Z,9.80
2023-04-20T07:58:18.596Z,9.45
2023-04-20T08:00:20.750Z,10.20
2023-04-20T08:02:22.717Z,9.63
2023-04-20T08:04:24.948Z,9.63
2023-04-20T08:06:27.359Z,9.10
2023-04-20T08:08:29.695Z,9.18
2023-04-20T08:10:31.620Z,9.45
2023-04-20T08:12:33.514Z,8.83
2023-04-20T08:14:35.587Z,9.25
2023-04-20T08:16:37.366Z,8.25
2023-04-20T08:18:39.221Z,8.67
2023-04-20T08:20:41.157Z,8.00
2023-04-20T08:22:42.978Z,8.95
2023-04-20T08:24:44.777Z,9.00
2023-04-20T08:26:46.576Z,8.83
2023-04-20T08:28:48.408Z,8.80
2023-04-20T08:30:50.514Z,8.83
2023-04-20T08:32:52.308Z,9.27
2023-04-20T08:34:54.265Z,8.70
2023-04-20T08:36:56.202Z,8.75
2023-04-20T08:39:09.322Z,9.40
2023-04-20T08:41:13.744Z,9.07
2023-04-20T08:43:16.339Z,8.48
2023-04-20T08:45:18.202Z,9.85
2023-04-20T08:47:21.102Z,10.02
2023-04-20T08:49:23.070Z,8.88
2023-04-20T08:51:24.871Z,8.73
2023-04-20T08:53:26.691Z,8.97
2023-04-20T08:55:28.592Z,9.13
2023-04-20T08:57:30.382Z,8.57
2023-04-20T08:59:32.215Z,9.67
2023-04-20T09:01:36.376Z,8.35
2023-04-20T09:03:40.132Z,8.50
2023-04-20T09:05:42.074Z,8.88
2023-04-20T09:07:52.993Z,9.00
2023-04-20T09:09:59.057Z,8.75
2023-04-20T09:12:08.021Z,8.85
2023-04-20T09:14:12.576Z,8.13
2023-04-20T09:16:14.631Z,8.10
2023-04-20T09:18:17.570Z,8.85
2023-04-20T09:20:32.788Z,8.23
2023-04-20T09:22:35.864Z,7.90
2023-04-20T09:24:38.404Z,7.95
2023-04-20T09:26:40.852Z,7.65
2023-04-20T09:28:42.696Z,8.43
2023-04-20T09:30:48.593Z,8.23
2023-04-20T09:33:00.527Z,7.13
2023-04-20T09:35:02.439Z,7.25
2023-04-20T09:37:06.794Z,7.50
2023-04-20T09:39:22.437Z,7.90
2023-04-20T09:41:24.224Z,7.10
2023-04-20T09:43:26.033Z,6.97
2023-04-20T09:45:28.541Z,7.18
2023-04-20T09:47:31.058Z,7.82
2023-04-20T09:49:33.034Z,6.80
2023-04-20T09:51:36.217Z,7.53
2023-04-20T09:53:38.033Z,7.03
2023-04-20T09:55:39.832Z,7.83
2023-04-20T09:57:41.793Z,6.75
2023-04-20T09:59:44.059Z,7.13
2023-04-20T10:01:46.348Z,7.82
2023-04-20T10:03:48.497Z,7.28
2023-04-20T10:05:52.310Z,7.65
2023-04-20T10:08:00.469Z,8.73
2023-04-20T10:10:12.830Z,7.90
2023-04-20T10:12:14.746Z,8.27
2023-04-20T10:14:21.110Z,7.43
2023-04-20T10:16:23.194Z,7.28
2023-04-20T10:18:25.350Z,7.10
2023-04-20T10:20:28.126Z,6.95
2023-04-20T10:24:38.040Z,7.10
2023-04-20T10:26:41.166Z,7.85
2023-04-20T10:28:44.919Z,6.82
2023-04-20T10:30:50.795Z,8.43
2023-04-20T10:33:05.006Z,7.60
2023-04-20T10:35:11.526Z,7.35
2023-04-20T10:37:13.775Z,7.45
2023-04-20T10:39:19.279Z,7.22
2023-04-20T10:41:21.718Z,7.78
2023-04-20T10:43:23.579Z,7.55
2023-04-20T10:45:38.696Z,7.28
2023-04-20T10:47:41.180Z,6.68
2023-04-20T10:49:43.057Z,6.47
2023-04-20T10:51:51.300Z,6.53
2023-04-20T10:54:19.518Z,6.22
2023-04-20T10:56:21.552Z,5.47
2023-04-20T10:58:24.099Z,6.40
2023-04-20T11:02:28.830Z,6.93
2023-04-20T11:04:34.178Z,6.05
2023-04-20T11:06:36.318Z,5.80
2023-04-20T11:08:39.630Z,5.72
2023-04-20T11:10:42.246Z,6.43
2023-04-20T11:14:55.869Z,5.68
2023-04-20T11:16:57.754Z,6.30
2023-04-20T11:18:59.799Z,6.65
2023-04-20T11:21:01.633Z,5.97
2023-04-20T11:23:05.968Z,6.10
2023-04-20T11:25:09.356Z,6.68
2023-04-20T11:27:20.112Z,6.53
2023-04-20T11:29:30.425Z,6.70
2023-04-20T11:31:32.369Z,5.85
2023-04-20T11:33:34.384Z,6.22
2023-04-20T11:35:38.014Z,6.07
2023-04-20T11:37:51.501Z,5.88
2023-04-20T11:40:06.546Z,6.28
2023-04-20T11:42:08.458Z,6.03
2023-04-20T11:44:11.197Z,5.78
2023-04-20T11:46:17.470Z,5.70
2023-04-20T11:48:19.813Z,5.38
2023-04-20T11:50:22.156Z,5.85
2023-04-20T11:52:23.967Z,5.88
2023-04-20T11:54:28.282Z,6.20
2023-04-20T11:56:30.745Z,5.60
2023-04-20T11:58:32.608Z,6.25
2023-04-20T12:00:34.870Z,6.38
2023-04-20T12:02:36.865Z,5.55
2023-04-20T12:04:39.285Z,5.88
2023-04-20T12:08:43.981Z,6.97
2023-04-20T12:10:45.880Z,6.70
2023-04-20T12:12:47.842Z,6.25
2023-04-20T12:14:50.828Z,5.55
2023-04-20T12:16:52.688Z,5.63
2023-04-20T12:18:54.499Z,5.70
2023-04-20T12:20:56.321Z,5.63
2023-04-20T12:22:59.155Z,5.72
2023-04-20T12:25:01.238Z,6.70
2023-04-20T12:27:03.998Z,6.03
2023-04-20T12:29:05.901Z,6.32
2023-04-20T12:31:08.212Z,6.70
2023-04-20T12:33:10.653Z,5.90
2023-04-20T12:35:12.502Z,5.40
2023-04-20T12:37:14.979Z,5.93
2023-04-20T12:41:18.772Z,5.90
2023-04-20T12:43:21.007Z,5.68
2023-04-20T12:45:22.938Z,5.63
2023-04-20T12:47:24.785Z,5.85
2023-04-20T12:49:26.595Z,6.03
2023-04-20T12:51:28.572Z,6.05
2023-04-20T12:53:30.550Z,5.30
2023-04-20T12:55:32.381Z,5.18
2023-04-20T12:57:34.319Z,5.63
2023-04-20T12:59:36.116Z,6.18
2023-04-20T13:01:37.948Z,5.13
2023-04-20T13:03:40.310Z,4.70
2023-04-20T13:07:45.086Z,5.75
2023-04-20T13:09:46.902Z,5.40
2023-04-20T13:11:48.664Z,5.07
2023-04-20T13:13:50.585Z,5.43
2023-04-20T13:15:54.282Z,5.22
2023-04-20T13:17:56.247Z,5.53
2023-04-20T13:19:58.062Z,4.22
2023-04-20T13:21:59.900Z,4.93
2023-04-20T13:24:01.769Z,4.25
2023-04-20T13:26:03.689Z,4.55
2023-04-20T13:28:05.751Z,4.63
2023-04-20T13:30:08.849Z,4.28
2023-04-20T13:32:11.035Z,4.22
2023-04-20T13:34:12.881Z,4.95
2023-04-20T13:36:14.721Z,4.60
2023-04-20T13:38:16.555Z,4.55
2023-04-20T13:40:18.443Z,4.40
2023-04-20T13:42:20.256Z,5.03
2023-04-20T13:44:22.279Z,4.22
2023-04-20T13:46:24.310Z,3.95
2023-04-20T13:48:26.208Z,4.03
2023-04-20T13:50:28.062Z,4.03
2023-04-20T13:52:29.872Z,4.63
2023-04-20T13:54:31.695Z,4.40
2023-04-20T13:56:34.325Z,4.55
2023-04-20T13:58:36.270Z,4.57
2023-04-20T14:00:38.207Z,4.07
2023-04-20T14:02:40.212Z,4.30
2023-04-20T14:04:42.095Z,5.13
2023-04-20T14:06:43.936Z,4.38
2023-04-20T14:08:45.863Z,4.00
2023-04-20T14:10:47.736Z,4.78
2023-04-20T14:12:49.627Z,4.47
2023-04-20T14:14:51.682Z,3.97
2023-04-20T14:16:53.720Z,4.32
2023-04-20T14:18:55.556Z,3.90
2023-04-20T14:20:57.385Z,4.78
2023-04-20T14:22:59.182Z,3.70
2023-04-20T14:25:00.982Z,3.88
2023-04-20T14:27:02.853Z,4.25
2023-04-20T14:29:04.940Z,3.60
2023-04-20T14:31:06.788Z,3.83
2023-04-20T14:33:08.697Z,4.00
2023-04-20T14:35:10.601Z,3.95
2023-04-20T14:37:12.483Z,3.45
2023-04-20T14:39:14.972Z,3.60
2023-04-20T14:43:18.559Z,3.33
2023-04-20T14:45:20.975Z,3.42
2023-04-20T14:49:24.552Z,3.25
2023-04-20T14:51:27.172Z,3.20
2023-04-20T14:53:30.124Z,3.22
2023-04-20T14:55:32.848Z,3.45
2023-04-20T14:57:34.643Z,3.30
2023-04-20T14:59:37.230Z,3.38
2023-04-20T15:01:43.403Z,3.53
2023-04-20T15:03:53.601Z,3.58
2023-04-20T15:08:01.785Z,3.58
2023-04-20T15:10:03.826Z,3.17
2023-04-20T15:12:05.759Z,3.88
2023-04-20T15:14:07.549Z,3.58
2023-04-20T15:16:09.633Z,4.07
2023-04-20T15:18:11.439Z,4.03
2023-04-20T15:20:15.154Z,3.53
2023-04-20T15:22:17.061Z,4.00
2023-04-20T15:24:19.041Z,3.88
2023-04-20T15:26:21.021Z,3.65
2023-04-20T15:28:22.805Z,3.50
2023-04-20T15:30:24.705Z,3.45
2023-04-20T15:32:26.772Z,3.75
2023-04-20T15:34:28.978Z,3.95
2023-04-20T15:36:31.017Z,3.95
2023-04-20T15:38:33.082Z,3.72
2023-04-20T15:40:35.006Z,4.07
2023-04-20T15:42:36.820Z,3.72
2023-04-20T15:44:38.650Z,3.88
2023-04-20T15:46:40.705Z,3.58
2023-04-20T15:48:43.366Z,3.17
2023-04-20T15:52:49.791Z,3.05
2023-04-20T15:54:51.712Z,3.45
2023-04-20T15:56:53.608Z,3.38
2023-04-20T15:58:55.495Z,4.20
2023-04-20T16:00:57.428Z,3.83
2023-04-20T16:03:01.731Z,3.70
2023-04-20T16:05:04.334Z,3.92
2023-04-20T16:07:06.311Z,3.13
2023-04-20T16:09:08.157Z,4.38
2023-04-20T16:11:09.982Z,3.42
2023-04-20T16:13:12.033Z,3.40
2023-04-20T16:15:13.899Z,4.25
2023-04-20T16:17:16.293Z,4.28
2023-04-20T16:19:18.079Z,3.83
2023-04-20T16:21:19.913Z,3.95
2023-04-20T16:23:21.728Z,3.97
2023-04-20T16:25:24.168Z,3.95
2023-04-20T16:27:26.915Z,3.60
2023-04-20T16:29:28.901Z,3.40
2023-04-20T16:31:31.579Z,3.58
2023-04-20T16:33:34.321Z,2.80
2023-04-20T16:35:36.135Z,3.75
2023-04-20T16:37:38.003Z,3.83
2023-04-20T16:39:40.401Z,4.22
2023-04-20T16:41:42.254Z,3.45
2023-04-20T16:43:44.111Z,3.72
2023-04-20T16:45:45.994Z,3.33
2023-04-20T16:47:48.479Z,4.05
2023-04-20T16:49:50.480Z,4.13
2023-04-20T16:51:52.510Z,4.57
2023-04-20T16:53:54.284Z,3.95
2023-04-20T16:55:56.131Z,3.80
2023-04-20T16:58:01.071Z,4.97
2023-04-20T17:00:03.088Z,4.40
2023-04-20T17:02:05.074Z,4.88
2023-04-20T17:04:07.141Z,4.72
2023-04-20T17:06:09.903Z,5.47
2023-04-20T17:08:11.808Z,5.28
2023-04-20T17:10:13.866Z,5.22
2023-04-20T17:12:15.912Z,5.15
2023-04-20T17:14:17.968Z,5.57
2023-04-20T17:16:20.552Z,5.25
2023-04-20T17:18:22.412Z,5.35
2023-04-20T17:20:24.264Z,5.22
2023-04-20T17:22:26.837Z,5.45
2023-04-20T17:24:28.644Z,5.78
2023-04-20T17:26:30.422Z,5.50
2023-04-20T17:28:32.252Z,6.40
2023-04-20T17:30:34.503Z,6.25
2023-04-20T17:32:36.591Z,8.60
2023-04-20T17:34:40.086Z,6.30
2023-04-20T17:36:42.288Z,6.05
2023-04-20T17:38:44.100Z,5.88
2023-04-20T17:40:46.040Z,6.40
2023-04-20T17:42:48.109Z,6.85
2023-04-20T17:44:49.921Z,6.90
2023-04-20T17:46:51.723Z,6.60
2023-04-20T17:48:53.627Z,7.70
2023-04-20T17:50:56.857Z,7.57
2023-04-20T17:53:06.428Z,7.60
2023-04-20T17:55:08.943Z,8.95
2023-04-20T17:57:10.892Z,7.28
2023-04-20T17:59:12.692Z,7.82
2023-04-20T18:01:16.653Z,9.68
2023-04-20T18:03:20.125Z,7.80
2023-04-20T18:05:22.756Z,8.75
2023-04-20T18:07:25.446Z,8.55
2023-04-20T18:11:29.000Z,8.18
2023-04-20T18:13:30.919Z,9.07
2023-04-20T18:15:32.811Z,9.73
2023-04-20T18:17:34.751Z,9.65
2023-04-20T18:19:37.185Z,10.10
2023-04-20T18:21:39.427Z,11.18
2023-04-20T18:23:41.214Z,12.02
2023-04-20T18:25:43.201Z,12.43
2023-04-20T18:27:45.813Z,11.00
2023-04-20T18:31:50.289Z,10.20
2023-04-20T18:35:54.038Z,9.27
2023-04-20T18:37:55.820Z,10.77
2023-04-20T18:39:58.160Z,9.97
2023-04-20T18:42:00.965Z,10.32
2023-04-20T18:44:02.894Z,9.25
2023-04-20T18:46:04.846Z,9.98
2023-04-20T18:48:06.957Z,10.88
2023-04-20T18:50:09.098Z,10.45
2023-04-20T18:52:11.504Z,9.65
2023-04-20T18:54:13.530Z,10.55
2023-04-20T18:56:15.471Z,9.35
2023-04-20T18:58:17.299Z,9.20
2023-04-20T19:00:19.800Z,9.60
2023-04-20T19:02:22.230Z,8.68
2023-04-20T19:04:24.284Z,8.60
2023-04-20T19:06:26.231Z,8.55
2023-04-20T19:08:28.069Z,8.65
2023-04-20T19:10:29.939Z,9.67
2023-04-20T19:12:32.635Z,9.60
2023-04-20T19:14:34.581Z,9.75
2023-04-20T19:16:37.035Z,9.43
2023-04-20T19:18:39.171Z,9.88
2023-04-20T19:20:40.987Z,10.02
2023-04-20T19:22:42.781Z,9.05
2023-04-20T19:24:44.679Z,10.23
2023-04-20T19:26:46.502Z,10.10
2023-04-20T19:28:48.305Z,10.80
2023-04-20T19:30:50.116Z,12.33
2023-04-20T19:32:52.030Z,12.00
2023-04-20T19:34:57.349Z,12.20
2023-04-20T19:36:59.520Z,12.65
2023-04-20T19:39:01.519Z,11.95
2023-04-20T19:41:03.607Z,12.82
2023-04-20T19:43:05.547Z,12.52
2023-04-20T19:45:07.747Z,14.35
2023-04-20T19:47:09.838Z,13.65
2023-04-20T19:49:11.678Z,13.07
2023-04-20T19:51:13.545Z,11.57
2023-04-20T19:53:15.792Z,11.13
2023-04-20T19:55:17.748Z,11.25
2023-04-20T19:57:19.572Z,11.00
2023-04-20T19:59:21.451Z,10.13
2023-04-20T20:01:23.361Z,10.65
2023-04-20T20:03:25.356Z,10.93
2023-04-20T20:05:27.243Z,11.02
2023-04-20T20:07:29.073Z,10.97
2023-04-20T20:09:31.013Z,11.52
2023-04-20T20:11:33.341Z,10.23
2023-04-20T20:13:35.144Z,10.77
2023-04-20T20:15:37.878Z,11.23
2023-04-20T20:17:39.856Z,11.02
2023-04-20T20:19:45.045Z,11.75
2023-04-20T20:21:46.857Z,10.90
2023-04-20T20:23:48.691Z,11.33
2023-04-20T20:25:50.493Z,10.87
2023-04-20T20:27:52.367Z,10.83
2023-04-20T20:29:54.336Z,10.80
2023-04-20T20:31:56.385Z,10.60
2023-04-20T20:33:58.390Z,10.27
2023-04-20T20:36:01.474Z,10.02
2023-04-20T20:38:07.952Z,10.98
2023-04-20T20:40:15.323Z,10.23
2023-04-20T20:42:17.415Z,10.00
2023-04-20T20:44:20.861Z,9.63
2023-04-20T20:46:23.214Z,10.40
2023-04-20T20:48:25.083Z,10.30
2023-04-20T20:50:27.996Z,10.90
2023-04-20T20:52:29.928Z,10.55
2023-04-20T20:54:31.866Z,10.97
2023-04-20T20:56:33.793Z,10.37
2023-04-20T20:58:35.776Z,10.88
2023-04-20T21:00:37.694Z,10.75
2023-04-20T21:02:39.866Z,10.50
2023-04-20T21:04:41.993Z,10.93
2023-04-20T21:06:43.833Z,10.30
2023-04-20T21:08:45.798Z,9.83
2023-04-20T21:10:47.759Z,11.32
2023-04-20T21:12:49.609Z,10.77
2023-04-20T21:14:52.403Z,11.07
2023-04-20T21:16:54.453Z,9.57
2023-04-20T21:18:56.480Z,10.80
2023-04-20T21:20:58.412Z,9.95
2023-04-20T21:23:00.250Z,11.32
2023-04-20T21:25:02.404Z,11.57
2023-04-20T21:27:04.327Z,9.63
2023-04-20T21:29:06.328Z,13.02
2023-04-20T21:31:08.376Z,11.55
2023-04-20T21:33:10.253Z,11.20
2023-04-20T21:35:12.131Z,10.70
2023-04-20T21:37:14.024Z,10.13
2023-04-20T21:39:15.986Z,9.77
2023-04-20T21:41:18.039Z,10.63
2023-04-20T21:43:19.890Z,10.32
2023-04-20T21:45:21.840Z,12.30
2023-04-20T21:47:23.815Z,12.23
2023-04-20T21:49:25.791Z,11.27
2023-04-20T21:51:27.966Z,10.77
2023-04-20T21:53:30.044Z,10.52
2023-04-20T21:55:31.984Z,10.23
2023-04-20T21:57:33.789Z,10.50
2023-04-20T21:59:35.689Z,10.37
2023-04-20T22:01:37.660Z,10.40
2023-04-20T22:03:39.777Z,9.55
2023-04-20T22:05:41.720Z,10.20
2023-04-20T22:07:45.189Z,9.80
2023-04-20T22:09:47.019Z,10.15
2023-04-20T22:11:50.040Z,9.87
2023-04-20T22:13:51.863Z,9.93
2023-04-20T22:15:53.773Z,10.13
2023-04-20T22:17:55.694Z,10.50
2023-04-20T22:19:57.530Z,10.70
2023-04-20T22:21:59.415Z,10.00
2023-04-20T22:24:01.265Z,10.37
2023-04-20T22:26:03.137Z,9.95
2023-04-20T22:28:04.949Z,10.77
2023-04-20T22:30:09.474Z,9.90
2023-04-20T22:32:11.394Z,10.27
2023-04-20T22:34:13.232Z,10.17
2023-04-20T22:36:15.113Z,9.23
2023-04-20T22:38:17.044Z,9.75
2023-04-20T22:40:18.851Z,9.57
2023-04-20T22:42:20.917Z,9.73
2023-04-20T22:44:22.776Z,10.23
2023-04-20T22:46:24.612Z,10.23
2023-04-20T22:48:26.732Z,10.73
2023-04-20T22:50:28.566Z,9.55
2023-04-20T22:52:30.820Z,10.37
2023-04-20T22:54:32.645Z,11.27
2023-04-20T22:56:35.366Z,10.27
2023-04-20T23:00:38.985Z,11.07
2023-04-20T23:02:41.223Z,12.50
2023-04-20T23:04:46.030Z,12.30
2023-04-20T23:06:47.881Z,12.20
2023-04-20T23:08:50.720Z,11.70
2023-04-20T23:10:55.719Z,12.77
2023-04-20T23:12:57.586Z,11.15
2023-04-20T23:15:01.980Z,11.63
2023-04-20T23:17:04.844Z,11.85
2023-04-20T23:19:06.725Z,11.93
2023-04-20T23:21:08.545Z,12.43
2023-04-20T23:23:10.882Z,13.13
2023-04-20T23:25:12.805Z,14.23
2023-04-20T23:27:14.597Z,12.55
2023-04-20T23:29:16.751Z,12.57
2023-04-20T23:31:19.721Z,11.40
2023-04-20T23:35:23.360Z,11.70
2023-04-20T23:37:25.386Z,10.85
2023-04-20T23:39:27.197Z,11.05
2023-04-20T23:41:28.989Z,11.80
2023-04-20T23:43:30.825Z,10.27
2023-04-20T23:45:32.693Z,11.47
2023-04-20T23:47:34.586Z,11.40
2023-04-20T23:49:36.435Z,10.50
2023-04-20T23:51:38.282Z,10.30
2023-04-20T23:53:40.134Z,10.53
2023-04-20T23:55:42.033Z,10.82
2023-04-20T23:57:43.902Z,10.85
2023-04-20T23:59:45.731Z,11.40
